createdAt,value
2024-03-01T00:10:43.390Z,97.80
2024-03-01T00:25:43.745Z,106.40
2024-03-01T00:40:44.166Z,187.80
2024-03-01T00:55:44.565Z,236.50
2024-03-01T01:10:45.101Z,131.10
2024-03-01T01:25:45.577Z,236.20
2024-03-01T01:40:46.077Z,537.50
2024-03-01T01:55:46.358Z,392.20
2024-03-01T02:10:46.907Z,303.70
2024-03-01T02:25:47.486Z,309.30
2024-03-01T02:40:47.840Z,271.50
2024-03-01T02:55:48.201Z,372.80
2024-03-01T03:10:48.682Z,442.80
2024-03-01T03:25:49.060Z,433.50
2024-03-01T03:40:49.539Z,443.50
2024-03-01T03:55:49.854Z,318.90
2024-03-01T04:10:50.229Z,411.50
2024-03-01T04:25:50.486Z,369.00
2024-03-01T04:40:50.921Z,474.60
2024-03-01T04:55:51.645Z,352.40
2024-03-01T05:10:52.699Z,377.60
2024-03-01T05:25:53.051Z,363.50
2024-03-01T05:40:55.779Z,281.20
2024-03-01T05:55:54.834Z,215.20
2024-03-01T06:10:55.599Z,178.30
2024-03-01T06:25:56.280Z,153.30
2024-03-01T06:40:57.020Z,110.00
2024-03-01T06:55:57.625Z,79.00
2024-03-01T07:10:58.281Z,70.10
2024-03-01T07:25:58.962Z,76.40
2024-03-01T07:40:59.616Z,69.40
2024-03-01T07:56:00.312Z,62.60
2024-03-01T08:11:00.972Z,60.40
2024-03-01T08:26:01.622Z,57.80
2024-03-01T08:41:02.262Z,56.60
2024-03-01T08:56:03.031Z,56.10
2024-03-01T09:11:04.169Z,58.30
2024-03-01T09:26:04.272Z,57.80
2024-03-01T09:41:04.960Z,63.10
2024-03-01T09:56:05.470Z,61.20
2024-03-01T10:11:06.229Z,62.60
2024-03-01T10:26:06.874Z,60.30
2024-03-01T10:41:11.895Z,64.90
2024-03-01T10:56:09.110Z,69.30
2024-03-01T11:11:08.500Z,61.10
2024-03-01T11:26:09.074Z,58.40
2024-03-01T11:41:09.735Z,50.10
2024-03-01T11:56:10.181Z,43.90
2024-03-01T12:11:10.623Z,45.40
2024-03-01T12:26:10.957Z,44.50
2024-03-01T12:41:11.939Z,38.80
2024-03-01T12:56:12.275Z,34.80
2024-03-01T13:11:12.827Z,35.80
2024-03-01T13:26:13.252Z,38.80
2024-03-01T13:41:13.806Z,36.80
2024-03-01T13:56:14.158Z,34.60
2024-03-01T14:11:14.691Z,30.10
2024-03-01T14:26:15.057Z,26.60
2024-03-01T14:41:16.214Z,30.70
2024-03-01T14:56:16.650Z,26.60
2024-03-01T15:11:17.202Z,22.30
2024-03-01T15:26:17.662Z,23.20
2024-03-01T15:41:18.067Z,18.90
2024-03-01T15:56:18.495Z,18.40
2024-03-01T16:11:18.993Z,21.10
2024-03-01T16:26:19.562Z,17.10
2024-03-01T16:41:19.992Z,17.40
2024-03-01T16:56:20.485Z,16.70
2024-03-01T17:11:20.897Z,20.00
2024-03-01T17:26:23.337Z,18.40
2024-03-01T17:41:22.436Z,20.40
2024-03-01T17:56:23.207Z,20.50
2024-03-01T18:11:23.859Z,22.40
2024-03-01T18:26:24.546Z,25.70
2024-03-01T18:41:25.245Z,33.90
2024-03-01T18:56:25.986Z,38.80
2024-03-01T19:11:26.822Z,45.80
2024-03-01T19:26:27.021Z,57.80
2024-03-01T19:41:27.710Z,55.30
2024-03-01T19:56:28.382Z,61.90
2024-03-01T20:11:29.156Z,64.30
2024-03-01T20:26:29.943Z,74.00
2024-03-01T20:41:30.859Z,74.50
2024-03-01T20:56:31.178Z,75.00
2024-03-01T21:11:31.496Z,88.90
2024-03-01T21:26:32.211Z,97.00
2024-03-01T21:41:33.002Z,90.00
2024-03-01T21:56:33.824Z,87.60
2024-03-01T22:11:34.748Z,85.60
2024-03-01T22:26:35.035Z,99.00
2024-03-01T22:41:35.897Z,86.30
2024-03-01T22:56:36.185Z,92.40
2024-03-01T23:11:37.131Z,111.20
2024-03-01T23:26:37.554Z,108.90
2024-03-01T23:41:37.995Z,100.30
2024-03-01T23:56:38.307Z,104.00
